You are not logged in, Click here to log in
上海浦東國際機場PVG / ZSPD 中國上海市浦東新區
ICAO: ZSPD Country: 中國上海市浦東新區
Latitude: 31.1443 Longitude: 121.808
Total Arrivals: 90 Total Departures: 87
Latest Arrival: MU271 (ZBAA-ZSPD)Arthur. Kung Latest Departure: BR2781 (ZSPD-RCTP)Stone. Chang
Scenery:
METAR : ZSPD 131100Z 20002MPS CAVOK 10/07 Q1025 NOSIG

上海浦東國際機場PVG

You are accessing this site from IP address 100.26.176.182. Virtual Airline. CMS by phpVMS.Website designed by Zumeweb and edited by Theo Bearman.
There is 0 User(s) Online: | and 3 Guest(s) Online.
All information on this site is for fight simulation purposes only. This site is for flight logging for pilots of Virtual Airline&模擬飛行論壇 FlySim only.